createdAt,value
2022-09-15T00:00:40.549Z,999.48
2022-09-15T00:01:39.709Z,999.50
2022-09-15T00:02:39.617Z,999.51
2022-09-15T00:03:39.524Z,999.57
2022-09-15T00:04:39.533Z,999.54
2022-09-15T00:05:39.573Z,999.49
2022-09-15T00:06:39.547Z,999.50
2022-09-15T00:07:40.197Z,999.52
2022-09-15T00:08:39.486Z,999.49
2022-09-15T00:09:39.456Z,999.52
2022-09-15T00:10:39.448Z,999.58
2022-09-15T00:11:39.426Z,999.52
2022-09-15T00:12:40.165Z,999.61
2022-09-15T00:13:39.607Z,999.51
2022-09-15T00:14:39.367Z,999.56
2022-09-15T00:15:40.138Z,999.45
2022-09-15T00:16:40.389Z,999.47
2022-09-15T00:17:39.369Z,999.63
2022-09-15T00:18:40.099Z,999.58
2022-09-15T00:19:39.320Z,999.47
2022-09-15T00:20:39.279Z,999.59
2022-09-15T00:21:39.268Z,999.75
2022-09-15T00:22:39.237Z,999.71
2022-09-15T00:23:39.264Z,999.82
2022-09-15T00:24:39.213Z,999.80
2022-09-15T00:25:39.409Z,999.86
2022-09-15T00:26:39.189Z,999.83
2022-09-15T00:27:39.159Z,999.90
2022-09-15T00:28:39.211Z,999.86
2022-09-15T00:29:39.139Z,999.94
2022-09-15T00:30:40.057Z,999.89
2022-09-15T00:31:39.148Z,999.95
2022-09-15T00:32:39.102Z,999.91
2022-09-15T00:33:39.167Z,999.89
2022-09-15T00:34:39.103Z,999.90
2022-09-15T00:35:40.038Z,999.80
2022-09-15T00:36:39.075Z,999.80
2022-09-15T00:37:39.021Z,999.77
2022-09-15T00:38:39.016Z,999.84
2022-09-15T00:39:39.943Z,999.84
2022-09-15T00:40:39.784Z,999.82
2022-09-15T00:41:39.946Z,999.90
2022-09-15T00:42:39.852Z,999.96
2022-09-15T00:43:38.984Z,999.99
2022-09-15T00:44:39.917Z,1000.07
2022-09-15T00:45:39.881Z,1000.04
2022-09-15T00:46:39.240Z,1000.09
2022-09-15T00:47:40.346Z,1000.07
2022-09-15T00:48:38.894Z,1000.08
2022-09-15T00:49:39.686Z,1000.14
2022-09-15T00:50:39.846Z,1000.07
2022-09-15T00:51:39.744Z,1000.12
2022-09-15T00:52:38.850Z,1000.10
2022-09-15T00:53:38.874Z,1000.12
2022-09-15T00:54:39.724Z,1000.09
2022-09-15T00:55:38.796Z,1000.12
2022-09-15T00:56:38.786Z,1000.10
2022-09-15T00:57:38.796Z,1000.13
2022-09-15T00:58:39.098Z,1000.15
2022-09-15T00:59:39.496Z,1000.16
2022-09-15T01:00:38.747Z,1000.19
2022-09-15T01:01:39.575Z,1000.22
2022-09-15T01:02:39.491Z,1000.24
2022-09-15T01:03:39.627Z,1000.26
2022-09-15T01:04:39.529Z,1000.30
2022-09-15T01:05:39.428Z,1000.28
2022-09-15T01:06:39.588Z,1000.31
2022-09-15T01:07:38.631Z,1000.31
2022-09-15T01:08:38.611Z,1000.34
2022-09-15T01:09:39.564Z,1000.37
2022-09-15T01:10:39.525Z,1000.33
2022-09-15T01:11:38.619Z,1000.29
2022-09-15T01:12:39.528Z,1000.28
2022-09-15T01:13:38.609Z,1000.26
2022-09-15T01:14:39.331Z,1000.27
2022-09-15T01:15:39.493Z,1000.31
2022-09-15T01:16:38.559Z,1000.30
2022-09-15T01:17:39.300Z,1000.33
2022-09-15T01:18:38.461Z,1000.29
2022-09-15T01:19:39.362Z,1000.32
2022-09-15T01:20:39.271Z,1000.31
2022-09-15T01:21:38.422Z,1000.31
2022-09-15T01:22:39.332Z,1000.28
2022-09-15T01:23:39.241Z,1000.24
2022-09-15T01:24:39.135Z,1000.27
2022-09-15T01:25:38.353Z,1000.27
2022-09-15T01:26:38.367Z,1000.27
2022-09-15T01:27:42.494Z,1000.30
2022-09-15T01:28:39.271Z,1000.29
2022-09-15T01:29:39.174Z,1000.29
2022-09-15T01:30:39.076Z,1000.28
2022-09-15T01:31:39.273Z,1000.26
2022-09-15T01:32:38.323Z,1000.28
2022-09-15T01:33:38.295Z,1000.28
2022-09-15T01:34:39.207Z,1000.32
2022-09-15T01:35:39.666Z,1000.31
2022-09-15T01:36:39.020Z,1000.33
2022-09-15T01:37:39.253Z,1000.36
2022-09-15T01:38:39.076Z,1000.31
2022-09-15T01:39:38.989Z,1000.32
2022-09-15T01:40:39.146Z,1000.32
2022-09-15T01:41:38.125Z,1000.34
2022-09-15T01:42:38.978Z,1000.36
2022-09-15T01:43:38.129Z,1000.34
2022-09-15T01:44:38.506Z,1000.37
2022-09-15T01:45:38.972Z,1000.36
2022-09-15T01:46:38.077Z,1000.42
2022-09-15T01:47:38.979Z,1000.40
2022-09-15T01:48:38.889Z,1000.40
2022-09-15T01:49:38.040Z,1000.41
2022-09-15T01:50:38.948Z,1000.45
2022-09-15T01:51:37.985Z,1000.43
2022-09-15T01:52:37.987Z,1000.39
2022-09-15T01:53:38.919Z,1000.42
2022-09-15T01:54:37.969Z,1000.44
2022-09-15T01:55:38.056Z,1000.44
2022-09-15T01:56:37.958Z,1000.40
2022-09-15T01:57:37.919Z,1000.39
2022-09-15T01:58:38.695Z,1000.40
2022-09-15T01:59:37.874Z,1000.38
2022-09-15T02:00:38.061Z,1000.38
2022-09-15T02:01:37.954Z,1000.41
2022-09-15T02:02:38.894Z,1000.39
2022-09-15T02:03:37.951Z,1000.38
2022-09-15T02:04:38.661Z,1000.40
2022-09-15T02:05:37.882Z,1000.41
2022-09-15T02:06:37.965Z,1000.38
2022-09-15T02:07:37.924Z,1000.38
2022-09-15T02:08:37.935Z,1000.38
2022-09-15T02:09:37.964Z,1000.41
2022-09-15T02:10:37.945Z,1000.41
2022-09-15T02:11:37.895Z,1000.41
2022-09-15T02:12:37.866Z,1000.41
2022-09-15T02:13:37.958Z,1000.43
2022-09-15T02:14:37.981Z,1000.45
2022-09-15T02:15:38.598Z,1000.38
2022-09-15T02:16:37.693Z,1000.43
2022-09-15T02:17:38.408Z,1000.43
2022-09-15T02:18:37.664Z,1000.44
2022-09-15T02:19:37.605Z,1000.45
2022-09-15T02:20:37.806Z,1000.47
2022-09-15T02:21:37.670Z,1000.48
2022-09-15T02:22:37.577Z,1000.41
2022-09-15T02:23:38.187Z,1000.46
2022-09-15T02:24:37.585Z,1000.47
2022-09-15T02:25:37.537Z,1000.46
2022-09-15T02:26:37.634Z,1000.44
2022-09-15T02:27:37.575Z,1000.46
2022-09-15T02:28:38.394Z,1000.49
2022-09-15T02:29:37.619Z,1000.47
2022-09-15T02:30:37.590Z,1000.44
2022-09-15T02:31:37.456Z,1000.37
2022-09-15T02:32:37.411Z,1000.29
2022-09-15T02:33:37.449Z,1000.31
2022-09-15T02:34:37.368Z,1000.32
2022-09-15T02:35:37.422Z,1000.26
2022-09-15T02:36:37.361Z,1000.28
2022-09-15T02:37:37.380Z,1000.24
2022-09-15T02:38:37.334Z,1000.25
2022-09-15T02:39:37.322Z,1000.19
2022-09-15T02:40:37.351Z,1000.18
2022-09-15T02:41:37.326Z,1000.19
2022-09-15T02:42:37.290Z,1000.21
2022-09-15T02:43:37.363Z,1000.17
2022-09-15T02:44:38.114Z,1000.17
2022-09-15T02:45:37.265Z,1000.16
2022-09-15T02:46:37.205Z,1000.20
2022-09-15T02:47:37.242Z,1000.19
2022-09-15T02:48:37.204Z,1000.20
2022-09-15T02:49:37.186Z,1000.15
2022-09-15T02:50:37.315Z,1000.18
2022-09-15T02:51:37.185Z,1000.20
2022-09-15T02:52:37.103Z,1000.15
2022-09-15T02:53:37.079Z,1000.18
2022-09-15T02:54:37.928Z,1000.21
2022-09-15T02:55:37.098Z,1000.20
2022-09-15T02:56:37.077Z,1000.20
2022-09-15T02:57:37.055Z,1000.17
2022-09-15T02:58:37.038Z,1000.18
2022-09-15T02:59:37.027Z,1000.21
2022-09-15T03:00:37.894Z,1000.20
2022-09-15T03:01:37.037Z,1000.17
2022-09-15T03:02:37.006Z,1000.17
2022-09-15T03:03:42.290Z,1000.10
2022-09-15T03:04:38.758Z,1000.07
2022-09-15T03:05:36.988Z,1000.04
2022-09-15T03:06:37.798Z,999.95
2022-09-15T03:07:36.928Z,999.88
2022-09-15T03:08:36.880Z,999.87
2022-09-15T03:09:36.876Z,999.88
2022-09-15T03:10:36.859Z,999.83
2022-09-15T03:11:37.049Z,999.81
2022-09-15T03:12:37.138Z,999.78
2022-09-15T03:13:37.202Z,999.78
2022-09-15T03:14:37.169Z,999.77
2022-09-15T03:15:37.143Z,999.76
2022-09-15T03:16:37.642Z,999.76
2022-09-15T03:17:36.777Z,999.77
2022-09-15T03:18:36.773Z,999.72
2022-09-15T03:19:36.744Z,999.71
2022-09-15T03:20:36.724Z,999.68
2022-09-15T03:21:37.644Z,999.65
2022-09-15T03:22:36.727Z,999.65
2022-09-15T03:23:36.691Z,999.64
2022-09-15T03:24:36.674Z,999.67
2022-09-15T03:25:37.514Z,999.69
2022-09-15T03:26:36.638Z,999.70
2022-09-15T03:27:36.657Z,999.69
2022-09-15T03:28:37.476Z,999.69
2022-09-15T03:29:37.192Z,999.70
2022-09-15T03:30:37.552Z,999.73
2022-09-15T03:31:36.708Z,999.69
2022-09-15T03:32:36.556Z,999.71
2022-09-15T03:33:37.515Z,999.70
2022-09-15T03:34:36.565Z,999.72
2022-09-15T03:35:36.484Z,999.71
2022-09-15T03:36:36.498Z,999.74
2022-09-15T03:37:36.485Z,999.69
2022-09-15T03:38:37.303Z,999.75
2022-09-15T03:39:36.507Z,999.72
2022-09-15T03:40:37.355Z,999.72
2022-09-15T03:41:37.257Z,999.69
2022-09-15T03:42:36.420Z,999.70
2022-09-15T03:43:36.376Z,999.67
2022-09-15T03:44:36.397Z,999.72
2022-09-15T03:45:36.484Z,999.68
2022-09-15T03:46:37.262Z,999.67
2022-09-15T03:47:37.189Z,999.71
2022-09-15T03:48:36.370Z,999.70
2022-09-15T03:49:37.256Z,999.70
2022-09-15T03:50:36.329Z,999.76
2022-09-15T03:51:37.059Z,999.80
2022-09-15T03:52:36.269Z,999.81
2022-09-15T03:53:37.129Z,999.81
2022-09-15T03:54:37.029Z,999.80
2022-09-15T03:55:37.193Z,999.76
2022-09-15T03:56:37.091Z,999.79
2022-09-15T03:57:36.203Z,999.77
2022-09-15T03:58:36.170Z,999.73
2022-09-15T03:59:37.063Z,999.77
2022-09-15T04:00:36.223Z,999.73
2022-09-15T04:01:36.171Z,999.73
2022-09-15T04:02:36.144Z,999.78
2022-09-15T04:03:43.229Z,999.80
2022-09-15T04:04:37.994Z,999.74
2022-09-15T04:05:36.101Z,999.75
2022-09-15T04:06:36.088Z,999.71
2022-09-15T04:07:36.156Z,999.71
2022-09-15T04:08:36.277Z,999.67
2022-09-15T04:09:36.353Z,999.68
2022-09-15T04:10:36.752Z,999.63
2022-09-15T04:11:36.933Z,999.66
2022-09-15T04:12:35.992Z,999.66
2022-09-15T04:13:35.973Z,999.69
2022-09-15T04:14:35.951Z,999.71
2022-09-15T04:15:35.964Z,999.71
2022-09-15T04:16:36.186Z,999.68
2022-09-15T04:17:36.906Z,999.63
2022-09-15T04:18:36.030Z,999.62
2022-09-15T04:19:35.897Z,999.64
2022-09-15T04:20:35.956Z,999.53
2022-09-15T04:21:35.860Z,999.51
2022-09-15T04:22:35.858Z,999.50
2022-09-15T04:23:35.883Z,999.44
2022-09-15T04:24:35.838Z,999.46
2022-09-15T04:25:35.858Z,999.44
2022-09-15T04:26:36.777Z,999.42
2022-09-15T04:27:35.788Z,999.42
2022-09-15T04:28:36.593Z,999.42
2022-09-15T04:29:35.748Z,999.45
2022-09-15T04:30:35.758Z,999.41
2022-09-15T04:31:36.612Z,999.41
2022-09-15T04:32:36.508Z,999.42
2022-09-15T04:33:35.719Z,999.41
2022-09-15T04:34:41.089Z,999.42
2022-09-15T04:35:36.715Z,999.44
2022-09-15T04:36:36.590Z,999.46
2022-09-15T04:37:36.499Z,999.45
2022-09-15T04:38:36.641Z,999.45
2022-09-15T04:39:36.561Z,999.48
2022-09-15T04:40:35.690Z,999.45
2022-09-15T04:41:36.201Z,999.47
2022-09-15T04:42:35.773Z,999.46
2022-09-15T04:43:36.158Z,999.49
2022-09-15T04:44:37.339Z,999.49
2022-09-15T04:45:36.533Z,999.48
2022-09-15T04:46:41.618Z,999.44
2022-09-15T04:47:35.494Z,999.47
2022-09-15T04:48:35.953Z,999.48
2022-09-15T04:49:36.961Z,999.47
2022-09-15T04:50:36.263Z,999.53
2022-09-15T04:51:35.917Z,999.51
2022-09-15T04:52:35.507Z,999.51
2022-09-15T04:53:36.226Z,999.49
2022-09-15T04:54:35.446Z,999.49
2022-09-15T04:55:36.295Z,999.45
2022-09-15T04:56:36.197Z,999.47
2022-09-15T04:57:35.358Z,999.40
2022-09-15T04:58:35.365Z,999.40
2022-09-15T04:59:35.307Z,999.38
2022-09-15T05:00:36.833Z,999.33
2022-09-15T05:01:36.376Z,999.32
2022-09-15T05:02:36.211Z,999.29
2022-09-15T05:03:36.037Z,999.30
2022-09-15T05:04:36.198Z,999.31
2022-09-15T05:05:35.230Z,999.37
2022-09-15T05:06:36.660Z,999.37
2022-09-15T05:07:36.185Z,999.40
2022-09-15T05:08:36.070Z,999.39
2022-09-15T05:09:35.191Z,999.41
2022-09-15T05:10:35.174Z,999.44
2022-09-15T05:11:36.192Z,999.44
2022-09-15T05:12:35.214Z,999.43
2022-09-15T05:13:36.102Z,999.42
2022-09-15T05:14:35.140Z,999.41
2022-09-15T05:15:35.124Z,999.44
2022-09-15T05:16:35.155Z,999.43
2022-09-15T05:17:35.063Z,999.43
2022-09-15T05:18:35.876Z,999.38
2022-09-15T05:19:35.384Z,999.38
2022-09-15T05:20:35.942Z,999.31
2022-09-15T05:21:35.012Z,999.33
2022-09-15T05:22:39.533Z,999.38
2022-09-15T05:23:36.934Z,999.39
2022-09-15T05:24:35.816Z,999.40
2022-09-15T05:25:35.004Z,999.44
2022-09-15T05:26:35.881Z,999.40
2022-09-15T05:27:35.818Z,999.43
2022-09-15T05:28:34.895Z,999.43
2022-09-15T05:29:35.848Z,999.40
2022-09-15T05:30:39.577Z,999.40
2022-09-15T05:31:36.744Z,999.38
2022-09-15T05:32:34.856Z,999.38
2022-09-15T05:33:35.567Z,999.38
2022-09-15T05:34:35.622Z,999.43
2022-09-15T05:35:35.789Z,999.36
2022-09-15T05:36:35.723Z,999.40
2022-09-15T05:37:34.865Z,999.37
2022-09-15T05:38:34.776Z,999.39
2022-09-15T05:39:35.661Z,999.31
2022-09-15T05:40:35.614Z,999.33
2022-09-15T05:41:34.728Z,999.29
2022-09-15T05:42:35.627Z,999.28
2022-09-15T05:43:35.530Z,999.28
2022-09-15T05:44:34.668Z,999.31
2022-09-15T05:45:34.708Z,999.35
2022-09-15T05:46:34.795Z,999.37
2022-09-15T05:47:34.738Z,999.43
2022-09-15T05:48:34.709Z,999.41
2022-09-15T05:49:34.688Z,999.44
2022-09-15T05:50:34.739Z,999.44
2022-09-15T05:51:34.711Z,999.40
2022-09-15T05:52:34.687Z,999.45
2022-09-15T05:53:35.330Z,999.43
2022-09-15T05:54:34.541Z,999.44
2022-09-15T05:55:34.533Z,999.41
2022-09-15T05:56:35.303Z,999.46
2022-09-15T05:57:34.530Z,999.44
2022-09-15T05:58:34.526Z,999.48
2022-09-15T05:59:34.485Z,999.47
2022-09-15T06:00:34.462Z,999.52
2022-09-15T06:01:34.615Z,999.53
2022-09-15T06:02:35.275Z,999.62
2022-09-15T06:03:35.412Z,999.67
2022-09-15T06:04:34.437Z,999.73
2022-09-15T06:05:34.393Z,999.75
2022-09-15T06:06:34.400Z,999.74
2022-09-15T06:07:35.274Z,999.72
2022-09-15T06:08:35.179Z,999.78
2022-09-15T06:09:34.365Z,999.84
2022-09-15T06:10:35.238Z,999.84
2022-09-15T06:11:34.356Z,999.86
2022-09-15T06:12:34.256Z,999.82
2022-09-15T06:13:34.298Z,999.86
2022-09-15T06:14:35.115Z,999.91
2022-09-15T06:15:34.255Z,999.92
2022-09-15T06:16:34.392Z,999.95
2022-09-15T06:17:34.237Z,1000.00
2022-09-15T06:18:34.236Z,1000.06
2022-09-15T06:19:34.204Z,1000.07
2022-09-15T06:20:34.186Z,1000.05
2022-09-15T06:21:34.169Z,1000.01
2022-09-15T06:22:34.187Z,1000.05
2022-09-15T06:23:34.179Z,1000.01
2022-09-15T06:24:34.245Z,1000.01
2022-09-15T06:25:35.077Z,1000.00
2022-09-15T06:26:35.001Z,999.96
2022-09-15T06:27:34.061Z,999.98
2022-09-15T06:28:35.051Z,999.99
2022-09-15T06:29:34.953Z,999.98
2022-09-15T06:30:34.020Z,1000.04
2022-09-15T06:31:34.791Z,1000.08
2022-09-15T06:32:35.441Z,1000.09
2022-09-15T06:33:33.989Z,1000.25
2022-09-15T06:34:33.990Z,1000.35
2022-09-15T06:35:33.940Z,1000.39
2022-09-15T06:36:34.017Z,1000.40
2022-09-15T06:37:34.693Z,1000.37
2022-09-15T06:38:33.902Z,1000.41
2022-09-15T06:39:33.901Z,1000.43
2022-09-15T06:40:33.909Z,1000.44
2022-09-15T06:41:58.332Z,1000.52
2022-09-15T06:42:34.904Z,1000.53
2022-09-15T06:43:35.274Z,1000.58
2022-09-15T06:44:34.795Z,1000.52
2022-09-15T06:45:33.861Z,1000.49
2022-09-15T06:46:34.660Z,1000.46
2022-09-15T06:47:33.903Z,1000.43
2022-09-15T06:48:33.802Z,1000.43
2022-09-15T06:49:33.745Z,1000.38
2022-09-15T06:50:33.752Z,1000.40
2022-09-15T06:51:34.196Z,1000.54
2022-09-15T06:52:34.148Z,1000.56
2022-09-15T06:53:33.707Z,1000.67
2022-09-15T06:54:33.695Z,1000.75
2022-09-15T06:55:34.166Z,1000.73
2022-09-15T06:56:37.875Z,1000.75
2022-09-15T06:57:33.627Z,1000.81
2022-09-15T06:58:33.678Z,1000.84
2022-09-15T06:59:33.658Z,1000.81
2022-09-15T07:00:33.617Z,1000.80
2022-09-15T07:01:33.608Z,1000.76
2022-09-15T07:02:34.480Z,1000.81
2022-09-15T07:03:33.657Z,1000.86
2022-09-15T07:04:34.974Z,1000.91
2022-09-15T07:05:34.310Z,1000.85
2022-09-15T07:06:33.518Z,1000.82
2022-09-15T07:07:33.489Z,1000.84
2022-09-15T07:08:34.280Z,1000.79
2022-09-15T07:09:34.409Z,1000.79
2022-09-15T07:10:33.461Z,1000.76
2022-09-15T07:11:33.441Z,1000.75
2022-09-15T07:12:33.464Z,1000.73
2022-09-15T07:13:33.396Z,1000.77
2022-09-15T07:14:33.391Z,1000.75
2022-09-15T07:15:33.413Z,1000.69
2022-09-15T07:16:33.450Z,1000.73
2022-09-15T07:17:33.353Z,1000.86
2022-09-15T07:18:34.084Z,1000.84
2022-09-15T07:19:33.324Z,1000.85
2022-09-15T07:20:33.374Z,1000.85
2022-09-15T07:21:33.343Z,1000.81
2022-09-15T07:22:34.254Z,1000.77
2022-09-15T07:23:33.275Z,1000.82
2022-09-15T07:24:34.074Z,1000.81
2022-09-15T07:25:33.272Z,1000.83
2022-09-15T07:26:33.858Z,1000.92
2022-09-15T07:27:33.466Z,1001.01
2022-09-15T07:28:33.205Z,1001.07
2022-09-15T07:29:37.554Z,1001.13
2022-09-15T07:30:34.668Z,1001.17
2022-09-15T07:31:33.333Z,1001.17
2022-09-15T07:32:34.017Z,1001.12
2022-09-15T07:33:33.177Z,1001.17
2022-09-15T07:34:34.087Z,1001.27
2022-09-15T07:35:33.107Z,1001.33
2022-09-15T07:36:33.118Z,1001.30
2022-09-15T07:37:33.129Z,1001.32
2022-09-15T07:38:33.092Z,1001.32
2022-09-15T07:39:33.080Z,1001.27
2022-09-15T07:40:34.102Z,1001.18
2022-09-15T07:41:33.087Z,1001.22
2022-09-15T07:42:35.443Z,1001.30
2022-09-15T07:43:33.743Z,1001.31
2022-09-15T07:44:33.891Z,1001.33
2022-09-15T07:45:32.982Z,1001.41
2022-09-15T07:46:32.963Z,1001.55
2022-09-15T07:47:33.861Z,1001.39
2022-09-15T07:48:32.921Z,1001.38
2022-09-15T07:49:32.981Z,1001.45
2022-09-15T07:50:32.892Z,1001.40
2022-09-15T07:51:33.742Z,1001.43
2022-09-15T07:52:32.863Z,1001.44
2022-09-15T07:53:33.801Z,1001.43
2022-09-15T07:54:33.148Z,1001.41
2022-09-15T07:55:32.817Z,1001.39
2022-09-15T07:56:33.765Z,1001.34
2022-09-15T07:57:34.244Z,1001.36
2022-09-15T07:58:32.805Z,1001.36
2022-09-15T07:59:34.900Z,1001.28
2022-09-15T08:00:33.668Z,1001.28
2022-09-15T08:01:33.589Z,1001.29
2022-09-15T08:02:33.077Z,1001.25
2022-09-15T08:03:33.616Z,1001.24
2022-09-15T08:04:33.507Z,1001.21
2022-09-15T08:05:37.756Z,1001.20
2022-09-15T08:06:33.681Z,1001.14
2022-09-15T08:07:32.657Z,1001.13
2022-09-15T08:08:32.651Z,1001.17
2022-09-15T08:09:33.538Z,1001.16
2022-09-15T08:10:33.447Z,1001.18
2022-09-15T08:11:33.351Z,1001.13
2022-09-15T08:12:33.509Z,1001.11
2022-09-15T08:13:33.417Z,1001.11
2022-09-15T08:14:33.319Z,1001.15
2022-09-15T08:15:33.480Z,1001.13
2022-09-15T08:16:33.452Z,1001.14
2022-09-15T08:17:32.532Z,1001.16
2022-09-15T08:18:32.502Z,1001.18
2022-09-15T08:19:33.351Z,1001.21
2022-09-15T08:20:33.253Z,1001.24
2022-09-15T08:21:33.413Z,1001.28
2022-09-15T08:22:33.321Z,1001.34
2022-09-15T08:23:32.421Z,1001.29
2022-09-15T08:24:33.383Z,1001.30
2022-09-15T08:25:32.374Z,1001.40
2022-09-15T08:26:33.191Z,1001.44
2022-09-15T08:27:33.354Z,1001.42
2022-09-15T08:28:32.376Z,1001.43
2022-09-15T08:29:33.165Z,1001.50
2022-09-15T08:30:32.318Z,1001.46
2022-09-15T08:31:32.388Z,1001.49
2022-09-15T08:32:32.283Z,1001.49
2022-09-15T08:33:33.025Z,1001.50
2022-09-15T08:34:33.198Z,1001.46
2022-09-15T08:35:32.349Z,1001.48
2022-09-15T08:36:32.998Z,1001.52
2022-09-15T08:37:32.257Z,1001.55
2022-09-15T08:38:32.259Z,1001.55
2022-09-15T08:39:32.201Z,1001.51
2022-09-15T08:40:33.185Z,1001.59
2022-09-15T08:41:32.278Z,1001.63
2022-09-15T08:42:32.935Z,1001.61
2022-09-15T08:43:32.341Z,1001.69
2022-09-15T08:44:33.023Z,1001.63
2022-09-15T08:45:32.115Z,1001.63
2022-09-15T08:46:32.181Z,1001.63
2022-09-15T08:47:32.966Z,1001.63
2022-09-15T08:48:32.872Z,1001.65
2022-09-15T08:49:50.656Z,1001.63
2022-09-15T08:50:33.072Z,1001.73
2022-09-15T08:51:33.452Z,1001.74
2022-09-15T08:52:32.004Z,1001.66
2022-09-15T08:53:32.266Z,1001.63
2022-09-15T08:54:32.819Z,1001.65
2022-09-15T08:55:32.019Z,1001.66
2022-09-15T08:56:32.035Z,1001.72
2022-09-15T08:57:32.774Z,1001.69
2022-09-15T08:58:31.910Z,1001.67
2022-09-15T08:59:31.878Z,1001.68
2022-09-15T09:00:31.916Z,1001.69
2022-09-15T09:01:31.945Z,1001.72
2022-09-15T09:02:32.094Z,1001.77
2022-09-15T09:03:32.735Z,1001.76
2022-09-15T09:04:32.616Z,1001.75
2022-09-15T09:05:32.778Z,1001.75
2022-09-15T09:06:32.677Z,1001.79
2022-09-15T09:07:31.848Z,1001.78
2022-09-15T09:08:32.738Z,1001.82
2022-09-15T09:09:32.678Z,1001.89
2022-09-15T09:10:32.549Z,1001.82
2022-09-15T09:11:32.709Z,1001.83
2022-09-15T09:12:31.760Z,1001.80
2022-09-15T09:13:35.456Z,1001.78
2022-09-15T09:14:31.703Z,1001.82
2022-09-15T09:15:31.890Z,1001.82
2022-09-15T09:16:31.702Z,1001.79
2022-09-15T09:17:31.731Z,1001.84
2022-09-15T09:18:33.118Z,1001.83
2022-09-15T09:19:32.452Z,1001.77
2022-09-15T09:20:31.772Z,1001.80
2022-09-15T09:21:31.863Z,1001.75
2022-09-15T09:22:32.292Z,1001.78
2022-09-15T09:23:32.582Z,1001.76
2022-09-15T09:24:31.866Z,1001.77
2022-09-15T09:25:31.544Z,1001.66
2022-09-15T09:26:31.525Z,1001.66
2022-09-15T09:27:32.457Z,1001.65
2022-09-15T09:28:31.852Z,1001.73
2022-09-15T09:29:31.503Z,1001.75
2022-09-15T09:30:31.464Z,1001.63
2022-09-15T09:31:31.498Z,1001.64
2022-09-15T09:32:31.445Z,1001.59
2022-09-15T09:33:31.875Z,1001.61
2022-09-15T09:34:31.827Z,1001.60
2022-09-15T09:35:31.406Z,1001.61
2022-09-15T09:36:31.467Z,1001.61
2022-09-15T09:37:31.445Z,1001.61
2022-09-15T09:38:31.810Z,1001.57
2022-09-15T09:39:31.337Z,1001.56
2022-09-15T09:40:31.376Z,1001.55
2022-09-15T09:41:31.338Z,1001.60
2022-09-15T09:42:31.290Z,1001.56
2022-09-15T09:43:31.278Z,1001.61
2022-09-15T09:44:31.259Z,1001.61
2022-09-15T09:45:31.260Z,1001.61
2022-09-15T09:46:32.228Z,1001.58
2022-09-15T09:47:31.313Z,1001.55
2022-09-15T09:48:31.278Z,1001.61
2022-09-15T09:49:31.192Z,1001.60
2022-09-15T09:50:31.202Z,1001.58
2022-09-15T09:51:31.172Z,1001.62
2022-09-15T09:52:31.173Z,1001.55
2022-09-15T09:53:31.174Z,1001.56
2022-09-15T09:54:31.121Z,1001.60
2022-09-15T09:55:31.121Z,1001.53
2022-09-15T09:56:31.103Z,1001.54
2022-09-15T09:57:31.066Z,1001.54
2022-09-15T09:58:31.243Z,1001.47
2022-09-15T09:59:31.128Z,1001.51
2022-09-15T10:00:31.258Z,1001.51
2022-09-15T10:01:31.058Z,1001.50
2022-09-15T10:02:31.003Z,1001.47
2022-09-15T10:03:33.047Z,1001.51
2022-09-15T10:04:30.995Z,1001.50
2022-09-15T10:05:30.954Z,1001.59
2022-09-15T10:06:31.016Z,1001.67
2022-09-15T10:07:30.920Z,1001.77
2022-09-15T10:08:30.957Z,1001.82
2022-09-15T10:09:33.406Z,1001.87
2022-09-15T10:10:31.424Z,1001.81
2022-09-15T10:11:38.850Z,1001.70
2022-09-15T10:12:31.211Z,1001.64
2022-09-15T10:13:31.147Z,1001.34
2022-09-15T10:14:31.634Z,1001.31
2022-09-15T11:00:50.226Z,1001.62
2022-09-15T11:01:50.176Z,1001.61
2022-09-15T11:02:50.015Z,1001.57
2022-09-15T11:03:50.001Z,1001.51
2022-09-15T11:04:50.786Z,1001.52
2022-09-15T11:05:49.978Z,1001.71
2022-09-15T11:06:49.964Z,1001.59
2022-09-15T11:07:50.755Z,1001.53
2022-09-15T11:08:50.985Z,1001.74
2022-09-15T11:09:49.914Z,1001.69
2022-09-15T11:10:49.922Z,1001.75
2022-09-15T11:11:49.865Z,1001.67
2022-09-15T11:12:49.921Z,1001.69
2022-09-15T11:13:49.891Z,1001.80
2022-09-15T11:14:50.167Z,1001.72
2022-09-15T11:15:50.332Z,1001.79
2022-09-15T11:16:50.317Z,1001.70
2022-09-15T11:17:49.761Z,1001.75
2022-09-15T11:18:49.759Z,1001.77
2022-09-15T11:19:50.630Z,1001.75
2022-09-15T11:20:50.562Z,1001.80
2022-09-15T11:21:49.817Z,1001.78
2022-09-15T11:22:49.937Z,1001.77
2022-09-15T11:23:49.734Z,1001.75
2022-09-15T11:24:49.984Z,1001.82
2022-09-15T11:25:49.705Z,1001.75
2022-09-15T11:26:50.463Z,1001.78
2022-09-15T11:27:49.965Z,1001.82
2022-09-15T11:28:49.694Z,1001.77
2022-09-15T11:29:49.884Z,1001.82
2022-09-15T11:30:49.724Z,1001.87
2022-09-15T11:31:50.070Z,1001.90
2022-09-15T11:32:52.914Z,1001.90
2022-09-15T11:33:50.605Z,1001.73
2022-09-15T11:34:49.588Z,1001.90
2022-09-15T11:35:49.631Z,1001.93
2022-09-15T11:36:49.568Z,1001.97
2022-09-15T11:37:49.540Z,1001.98
2022-09-15T11:38:49.590Z,1001.96
2022-09-15T11:39:49.727Z,1001.91
2022-09-15T11:40:49.539Z,1001.85
2022-09-15T11:41:49.730Z,1002.01
2022-09-15T11:42:49.493Z,1001.85
2022-09-15T11:43:49.434Z,1001.78
2022-09-15T11:44:49.998Z,1001.82
2022-09-15T11:45:49.465Z,1001.84
2022-09-15T11:46:49.460Z,1001.82
2022-09-15T11:47:49.391Z,1001.78
2022-09-15T11:48:49.378Z,1001.81
2022-09-15T11:49:49.336Z,1001.74
2022-09-15T11:50:49.314Z,1001.79
2022-09-15T11:51:49.382Z,1001.82
2022-09-15T11:52:49.442Z,1001.80
2022-09-15T11:53:49.345Z,1001.79
2022-09-15T11:54:49.282Z,1001.89
2022-09-15T11:55:49.307Z,1001.88
2022-09-15T11:56:49.242Z,1001.85
2022-09-15T11:57:49.295Z,1001.98
2022-09-15T11:58:49.327Z,1002.02
2022-09-15T11:59:49.206Z,1002.07
2022-09-15T12:00:49.219Z,1002.05
2022-09-15T12:01:49.874Z,1002.09
2022-09-15T12:02:49.538Z,1001.95
2022-09-15T12:03:49.460Z,1001.95
2022-09-15T12:04:49.790Z,1001.95
2022-09-15T12:05:49.409Z,1001.98
2022-09-15T12:06:49.530Z,1001.89
2022-09-15T12:07:49.191Z,1001.89
2022-09-15T12:08:49.126Z,1001.81
2022-09-15T12:09:49.120Z,1001.85
2022-09-15T12:10:49.191Z,1001.84
2022-09-15T12:11:49.212Z,1001.87
2022-09-15T12:12:49.141Z,1001.81
2022-09-15T12:13:49.032Z,1001.94
2022-09-15T12:14:48.973Z,1001.90
2022-09-15T12:15:49.052Z,1001.89
2022-09-15T12:16:49.244Z,1001.91
2022-09-15T12:17:48.983Z,1001.96
2022-09-15T12:18:48.975Z,1001.94
2022-09-15T12:19:48.933Z,1001.97
2022-09-15T12:20:48.899Z,1001.92
2022-09-15T12:21:48.956Z,1002.09
2022-09-15T12:22:49.216Z,1002.11
2022-09-15T12:23:48.960Z,1002.19
2022-09-15T12:24:49.767Z,1001.96
2022-09-15T12:25:48.836Z,1002.03
2022-09-15T12:26:48.825Z,1001.97
2022-09-15T12:27:48.819Z,1001.95
2022-09-15T12:28:48.844Z,1001.92
2022-09-15T12:29:48.829Z,1001.88
2022-09-15T12:30:48.832Z,1001.94
2022-09-15T12:31:48.764Z,1001.93
2022-09-15T12:32:48.779Z,1001.84
2022-09-15T12:33:48.770Z,1001.93
2022-09-15T12:34:48.781Z,1001.96
2022-09-15T12:35:48.680Z,1002.01
2022-09-15T12:36:48.725Z,1001.98
2022-09-15T12:37:48.884Z,1002.02
2022-09-15T12:38:49.215Z,1002.01
2022-09-15T12:39:48.742Z,1001.98
2022-09-15T12:40:48.612Z,1002.07
2022-09-15T12:41:48.604Z,1002.00
2022-09-15T12:42:49.573Z,1002.08
2022-09-15T12:43:48.631Z,1002.02
2022-09-15T12:44:48.681Z,1002.01
2022-09-15T12:45:48.937Z,1002.03
2022-09-15T12:46:48.639Z,1001.96
2022-09-15T12:47:48.585Z,1001.95
2022-09-15T12:48:48.548Z,1001.95
2022-09-15T12:49:48.599Z,1001.91
2022-09-15T12:50:48.518Z,1001.91
2022-09-15T12:51:48.595Z,1002.01
2022-09-15T12:52:48.650Z,1001.95
2022-09-15T12:53:48.490Z,1001.92
2022-09-15T12:54:48.478Z,1001.90
2022-09-15T12:55:48.484Z,1001.86
2022-09-15T12:56:48.501Z,1001.87
2022-09-15T12:57:48.437Z,1001.86
2022-09-15T12:58:48.599Z,1001.92